LBPD

Details ICAO LBPD (PDV)
Name Plovdiv
Region Bulgaria
Timezone Europe/Sofia (UTC+2.0)
Plans Departing 36
Arriving 27
Stats Elevation 597 ft / 182 m (AMSL)
Location 42.067856° 24.850814°
Runways 1
Magnetic Variation 5.066° E
Sunrise 2017-12-14 05:42:29 UTC / 2017-12-14 07:42:29 Local
Sunset 2017-12-14 14:50:49 UTC / 2017-12-14 16:50:49 Local
Advertisement - Login to hide

Runways

ID Width Length Bearing (true) Bearing (mag) Surface Threshold Offset Overrun Length
12 164 ft / 50 m 8,200 ft / 2,500 m 127.33° 122.26° Asphalt 0 ft / 0 m 197 ft / 60 m
30 164 ft / 50 m 8,200 ft / 2,500 m 307.35° 302.28° Asphalt 0 ft / 0 m 295 ft / 90 m

Approach Navaids

Runway Type Ident Frequency Range Bearing (true) Bearing (mag) Slope Elevation
30 Localiser IPD 109.90 MHz 18 nm / 33 km 307.33° 302.26° - 597 ft / 182 m (AMSL)
30 Glidescope IPD 109.90 MHz 10 nm / 19 km 307.34° 302.27° 3.00° 597 ft / 182 m (AMSL)

Map

Weather


0- 5 10 15 20 25 30 35+ Temperature / ° C

Clouds and Precipitation
Forecast for 2017-12-14 00:00 UTC. Updated 2 hours ago

Ground ~20,000 ft ~40,000 ft Winds

METAR

LBPD 132300Z AUTO 00000KT 6000 BR NCD 06/06 Q1013

TAF

TAF LBPD 131700Z 1318/1418 VRB04KT 9999 SCT040 BKN060 BECMG 1319/1321 5000 BR PROB40 TEMPO 1322/1405 3000 RA BR BECMG 1407/1409 28010KT 9999

Frequencies

Tower 119.60 MHz PLOVDIV TWR
Warning: Do not use this data for real-world aviation or navigation. No guarantee of current accuracy is given.